sensor_id;sensor_type;location;lat;lon;timestamp;P1;durP1;ratioP1;P2;durP2;ratioP2
61385;SDS011;47256;18.904;-99.054;2022-10-26T00:01:22;18.60;;;10.00;;
61385;SDS011;47256;18.904;-99.054;2022-10-26T00:03:50;14.85;;;9.80;;
61385;SDS011;47256;18.904;-99.054;2022-10-26T00:06:22;16.58;;;10.20;;
61385;SDS011;47256;18.904;-99.054;2022-10-26T00:08:54;20.23;;;10.90;;
61385;SDS011;47256;18.904;-99.054;2022-10-26T00:11:23;23.70;;;13.00;;
61385;SDS011;47256;18.904;-99.054;2022-10-26T00:13:50;31.02;;;12.48;;
61385;SDS011;47256;18.904;-99.054;2022-10-26T00:18:47;20.20;;;12.93;;
61385;SDS011;47256;18.904;-99.054;2022-10-26T00:21:15;19.13;;;11.38;;
61385;SDS011;47256;18.904;-99.054;2022-10-26T00:23:44;26.30;;;13.50;;
61385;SDS011;47256;18.904;-99.054;2022-10-26T00:26:11;32.67;;;15.05;;
61385;SDS011;47256;18.904;-99.054;2022-10-26T00:28:38;20.05;;;12.93;;
61385;SDS011;47256;18.904;-99.054;2022-10-26T00:31:07;24.70;;;13.20;;
61385;SDS011;47256;18.904;-99.054;2022-10-26T00:33:40;24.75;;;14.20;;
61385;SDS011;47256;18.904;-99.054;2022-10-26T00:36:08;20.40;;;12.18;;
61385;SDS011;47256;18.904;-99.054;2022-10-26T00:38:40;20.83;;;13.25;;
61385;SDS011;47256;18.904;-99.054;2022-10-26T00:41:14;26.52;;;13.98;;
61385;SDS011;47256;18.904;-99.054;2022-10-26T00:43:43;18.17;;;10.35;;
61385;SDS011;47256;18.904;-99.054;2022-10-26T00:46:11;18.42;;;11.20;;
61385;SDS011;47256;18.904;-99.054;2022-10-26T00:49:11;18.00;;;9.88;;
61385;SDS011;47256;18.904;-99.054;2022-10-26T00:51:48;14.23;;;10.35;;
61385;SDS011;47256;18.904;-99.054;2022-10-26T00:54:18;16.30;;;9.80;;
61385;SDS011;47256;18.904;-99.054;2022-10-26T00:56:49;15.52;;;10.75;;
61385;SDS011;47256;18.904;-99.054;2022-10-26T00:59:21;17.00;;;9.10;;
61385;SDS011;47256;18.904;-99.054;2022-10-26T01:01:49;18.10;;;11.02;;
61385;SDS011;47256;18.904;-99.054;2022-10-26T01:04:18;15.23;;;10.65;;
61385;SDS011;47256;18.904;-99.054;2022-10-26T01:06:46;15.38;;;9.98;;
61385;SDS011;47256;18.904;-99.054;2022-10-26T01:09:21;20.02;;;11.48;;
61385;SDS011;47256;18.904;-99.054;2022-10-26T01:11:48;16.33;;;10.38;;
61385;SDS011;47256;18.904;-99.054;2022-10-26T01:14:18;18.17;;;11.05;;
61385;SDS011;47256;18.904;-99.054;2022-10-26T01:17:01;18.02;;;9.48;;
61385;SDS011;47256;18.904;-99.054;2022-10-26T01:27:54;15.05;;;10.10;;
61385;SDS011;47256;18.904;-99.054;2022-10-26T01:30:24;18.90;;;10.73;;
61385;SDS011;47256;18.904;-99.054;2022-10-26T01:41:20;16.63;;;11.77;;
61385;SDS011;47256;18.904;-99.054;2022-10-26T01:44:19;18.02;;;10.13;;
61385;SDS011;47256;18.904;-99.054;2022-10-26T01:46:52;17.80;;;11.60;;
61385;SDS011;47256;18.904;-99.054;2022-10-26T01:49:27;22.15;;;11.40;;
61385;SDS011;47256;18.904;-99.054;2022-10-26T01:51:58;24.95;;;11.95;;
61385;SDS011;47256;18.904;-99.054;2022-10-26T01:54:28;19.25;;;12.07;;
61385;SDS011;47256;18.904;-99.054;2022-10-26T01:56:59;18.33;;;12.40;;
61385;SDS011;47256;18.904;-99.054;2022-10-26T02:13:40;22.20;;;11.02;;
61385;SDS011;47256;18.904;-99.054;2022-10-26T02:16:36;17.27;;;10.57;;
61385;SDS011;47256;18.904;-99.054;2022-10-26T02:22:28;13.68;;;9.25;;
61385;SDS011;47256;18.904;-99.054;2022-10-26T02:25:00;19.95;;;11.02;;
61385;SDS011;47256;18.904;-99.054;2022-10-26T02:27:35;13.25;;;9.48;;
61385;SDS011;47256;18.904;-99.054;2022-10-26T02:30:08;16.67;;;10.55;;
61385;SDS011;47256;18.904;-99.054;2022-10-26T02:32:40;15.55;;;11.15;;
61385;SDS011;47256;18.904;-99.054;2022-10-26T02:35:16;16.05;;;11.10;;
61385;SDS011;47256;18.904;-99.054;2022-10-26T02:37:52;17.67;;;10.50;;
61385;SDS011;47256;18.904;-99.054;2022-10-26T02:40:25;18.85;;;11.68;;
61385;SDS011;47256;18.904;-99.054;2022-10-26T02:42:55;20.65;;;11.18;;
61385;SDS011;47256;18.904;-99.054;2022-10-26T02:45:32;16.85;;;10.68;;
61385;SDS011;47256;18.904;-99.054;2022-10-26T02:48:05;21.25;;;10.45;;
61385;SDS011;47256;18.904;-99.054;2022-10-26T02:51:19;19.30;;;11.82;;
61385;SDS011;47256;18.904;-99.054;2022-10-26T02:54:23;23.08;;;10.98;;
61385;SDS011;47256;18.904;-99.054;2022-10-26T02:57:15;19.30;;;11.80;;
61385;SDS011;47256;18.904;-99.054;2022-10-26T02:59:53;16.92;;;11.63;;
61385;SDS011;47256;18.904;-99.054;2022-10-26T03:02:25;22.63;;;12.68;;
61385;SDS011;47256;18.904;-99.054;2022-10-26T03:04:55;24.45;;;12.05;;
61385;SDS011;47256;18.904;-99.054;2022-10-26T03:07:32;26.77;;;13.25;;
61385;SDS011;47256;18.904;-99.054;2022-10-26T03:10:07;21.55;;;13.98;;
61385;SDS011;47256;18.904;-99.054;2022-10-26T03:12:36;24.10;;;13.60;;
61385;SDS011;47256;18.904;-99.054;2022-10-26T03:15:04;25.73;;;13.00;;
61385;SDS011;47256;18.904;-99.054;2022-10-26T03:17:32;16.08;;;11.82;;
61385;SDS011;47256;18.904;-99.054;2022-10-26T03:20:00;18.73;;;11.27;;
61385;SDS011;47256;18.904;-99.054;2022-10-26T03:22:28;24.17;;;11.95;;
61385;SDS011;47256;18.904;-99.054;2022-10-26T03:24:55;23.08;;;13.75;;
61385;SDS011;47256;18.904;-99.054;2022-10-26T03:27:23;21.75;;;13.48;;
61385;SDS011;47256;18.904;-99.054;2022-10-26T03:29:52;19.38;;;12.95;;
61385;SDS011;47256;18.904;-99.054;2022-10-26T03:32:22;22.25;;;13.43;;
61385;SDS011;47256;18.904;-99.054;2022-10-26T03:34:50;22.33;;;11.50;;
61385;SDS011;47256;18.904;-99.054;2022-10-26T03:37:17;16.80;;;12.38;;
61385;SDS011;47256;18.904;-99.054;2022-10-26T03:39:45;23.13;;;11.77;;
61385;SDS011;47256;18.904;-99.054;2022-10-26T03:42:14;17.55;;;10.95;;
61385;SDS011;47256;18.904;-99.054;2022-10-26T03:44:42;19.25;;;11.15;;
61385;SDS011;47256;18.904;-99.054;2022-10-26T03:47:09;16.25;;;10.68;;
61385;SDS011;47256;18.904;-99.054;2022-10-26T03:49:37;16.80;;;11.18;;
61385;SDS011;47256;18.904;-99.054;2022-10-26T03:52:04;16.60;;;9.60;;
61385;SDS011;47256;18.904;-99.054;2022-10-26T03:54:32;16.05;;;10.75;;
61385;SDS011;47256;18.904;-99.054;2022-10-26T03:56:59;18.75;;;12.38;;
61385;SDS011;47256;18.904;-99.054;2022-10-26T03:59:27;16.25;;;10.60;;
61385;SDS011;47256;18.904;-99.054;2022-10-26T04:01:55;16.85;;;11.80;;
61385;SDS011;47256;18.904;-99.054;2022-10-26T04:04:22;17.45;;;10.52;;
61385;SDS011;47256;18.904;-99.054;2022-10-26T04:06:49;15.43;;;11.23;;
61385;SDS011;47256;18.904;-99.054;2022-10-26T04:09:20;17.92;;;10.65;;
61385;SDS011;47256;18.904;-99.054;2022-10-26T04:11:47;23.92;;;11.27;;
61385;SDS011;47256;18.904;-99.054;2022-10-26T04:14:16;14.48;;;10.27;;
61385;SDS011;47256;18.904;-99.054;2022-10-26T04:16:43;16.17;;;10.55;;
61385;SDS011;47256;18.904;-99.054;2022-10-26T04:19:12;18.75;;;11.93;;
61385;SDS011;47256;18.904;-99.054;2022-10-26T04:21:39;25.60;;;12.55;;
61385;SDS011;47256;18.904;-99.054;2022-10-26T04:24:06;15.10;;;9.95;;
61385;SDS011;47256;18.904;-99.054;2022-10-26T04:26:35;14.52;;;10.98;;
61385;SDS011;47256;18.904;-99.054;2022-10-26T04:29:02;18.50;;;11.70;;
61385;SDS011;47256;18.904;-99.054;2022-10-26T04:31:32;17.27;;;11.25;;
61385;SDS011;47256;18.904;-99.054;2022-10-26T04:33:59;16.42;;;10.38;;
61385;SDS011;47256;18.904;-99.054;2022-10-26T04:36:26;15.43;;;10.93;;
61385;SDS011;47256;18.904;-99.054;2022-10-26T04:38:53;16.25;;;10.27;;
61385;SDS011;47256;18.904;-99.054;2022-10-26T04:41:21;15.98;;;9.88;;
61385;SDS011;47256;18.904;-99.054;2022-10-26T04:43:48;16.15;;;11.20;;
61385;SDS011;47256;18.904;-99.054;2022-10-26T04:46:15;16.83;;;10.45;;
61385;SDS011;47256;18.904;-99.054;2022-10-26T04:48:42;15.63;;;10.32;;
61385;SDS011;47256;18.904;-99.054;2022-10-26T04:51:09;17.08;;;10.60;;
61385;SDS011;47256;18.904;-99.054;2022-10-26T04:53:36;16.08;;;10.38;;
61385;SDS011;47256;18.904;-99.054;2022-10-26T04:56:03;14.50;;;9.90;;
61385;SDS011;47256;18.904;-99.054;2022-10-26T04:58:30;16.08;;;11.45;;
61385;SDS011;47256;18.904;-99.054;2022-10-26T05:00:57;16.38;;;10.45;;
61385;SDS011;47256;18.904;-99.054;2022-10-26T05:03:26;20.27;;;9.52;;
61385;SDS011;47256;18.904;-99.054;2022-10-26T05:05:56;15.07;;;10.13;;
61385;SDS011;47256;18.904;-99.054;2022-10-26T05:08:26;13.35;;;9.20;;
61385;SDS011;47256;18.904;-99.054;2022-10-26T05:10:57;16.10;;;10.95;;
61385;SDS011;47256;18.904;-99.054;2022-10-26T05:13:27;14.85;;;10.50;;
61385;SDS011;47256;18.904;-99.054;2022-10-26T05:15:58;14.32;;;9.93;;
61385;SDS011;47256;18.904;-99.054;2022-10-26T05:18:28;14.23;;;9.70;;
61385;SDS011;47256;18.904;-99.054;2022-10-26T05:20:55;17.23;;;10.02;;
61385;SDS011;47256;18.904;-99.054;2022-10-26T05:23:22;13.57;;;9.40;;
61385;SDS011;47256;18.904;-99.054;2022-10-26T05:25:53;14.20;;;9.88;;
61385;SDS011;47256;18.904;-99.054;2022-10-26T05:28:22;14.25;;;9.80;;
61385;SDS011;47256;18.904;-99.054;2022-10-26T05:30:48;14.40;;;9.07;;
61385;SDS011;47256;18.904;-99.054;2022-10-26T05:33:16;24.05;;;9.73;;
61385;SDS011;47256;18.904;-99.054;2022-10-26T05:35:43;13.95;;;9.32;;
61385;SDS011;47256;18.904;-99.054;2022-10-26T05:38:13;15.90;;;10.30;;
61385;SDS011;47256;18.904;-99.054;2022-10-26T05:40:46;16.60;;;9.57;;
61385;SDS011;47256;18.904;-99.054;2022-10-26T05:43:14;12.43;;;8.80;;
61385;SDS011;47256;18.904;-99.054;2022-10-26T05:45:43;17.30;;;8.75;;
61385;SDS011;47256;18.904;-99.054;2022-10-26T05:48:10;16.17;;;9.38;;
61385;SDS011;47256;18.904;-99.054;2022-10-26T05:50:39;16.15;;;9.50;;
61385;SDS011;47256;18.904;-99.054;2022-10-26T05:53:07;20.15;;;9.98;;
61385;SDS011;47256;18.904;-99.054;2022-10-26T05:55:34;17.27;;;10.15;;
61385;SDS011;47256;18.904;-99.054;2022-10-26T05:58:02;16.02;;;10.35;;
61385;SDS011;47256;18.904;-99.054;2022-10-26T06:00:30;16.60;;;10.32;;
61385;SDS011;47256;18.904;-99.054;2022-10-26T06:05:44;15.38;;;9.48;;
61385;SDS011;47256;18.904;-99.054;2022-10-26T06:08:23;15.73;;;10.95;;
61385;SDS011;47256;18.904;-99.054;2022-10-26T06:10:57;16.83;;;10.18;;
61385;SDS011;47256;18.904;-99.054;2022-10-26T06:13:25;16.42;;;11.18;;
61385;SDS011;47256;18.904;-99.054;2022-10-26T06:16:01;13.85;;;9.60;;
61385;SDS011;47256;18.904;-99.054;2022-10-26T06:21:40;17.67;;;11.60;;
61385;SDS011;47256;18.904;-99.054;2022-10-26T06:24:31;19.88;;;11.45;;
61385;SDS011;47256;18.904;-99.054;2022-10-26T06:27:17;14.77;;;10.32;;
61385;SDS011;47256;18.904;-99.054;2022-10-26T06:30:00;16.05;;;10.05;;
61385;SDS011;47256;18.904;-99.054;2022-10-26T06:32:43;20.70;;;10.88;;
61385;SDS011;47256;18.904;-99.054;2022-10-26T06:38:16;14.02;;;9.55;;
61385;SDS011;47256;18.904;-99.054;2022-10-26T06:40:47;21.55;;;11.00;;
61385;SDS011;47256;18.904;-99.054;2022-10-26T06:43:21;16.73;;;11.57;;
61385;SDS011;47256;18.904;-99.054;2022-10-26T06:57:21;22.55;;;12.93;;
61385;SDS011;47256;18.904;-99.054;2022-10-26T06:59:56;20.50;;;11.80;;
61385;SDS011;47256;18.904;-99.054;2022-10-26T07:02:28;20.98;;;12.13;;
61385;SDS011;47256;18.904;-99.054;2022-10-26T07:04:55;21.42;;;12.43;;
61385;SDS011;47256;18.904;-99.054;2022-10-26T07:07:23;23.73;;;13.48;;
61385;SDS011;47256;18.904;-99.054;2022-10-26T07:09:57;21.92;;;13.68;;
61385;SDS011;47256;18.904;-99.054;2022-10-26T07:12:24;21.73;;;13.98;;
61385;SDS011;47256;18.904;-99.054;2022-10-26T07:14:51;24.13;;;13.88;;
61385;SDS011;47256;18.904;-99.054;2022-10-26T07:17:18;23.67;;;14.00;;
61385;SDS011;47256;18.904;-99.054;2022-10-26T07:19:47;20.83;;;13.07;;
61385;SDS011;47256;18.904;-99.054;2022-10-26T07:22:13;20.67;;;13.70;;
61385;SDS011;47256;18.904;-99.054;2022-10-26T07:24:41;28.33;;;14.48;;
61385;SDS011;47256;18.904;-99.054;2022-10-26T07:27:07;20.88;;;13.45;;
61385;SDS011;47256;18.904;-99.054;2022-10-26T07:29:38;25.05;;;13.25;;
61385;SDS011;47256;18.904;-99.054;2022-10-26T07:32:04;26.70;;;12.65;;
61385;SDS011;47256;18.904;-99.054;2022-10-26T07:34:32;22.45;;;13.48;;
61385;SDS011;47256;18.904;-99.054;2022-10-26T07:36:59;19.63;;;13.25;;
61385;SDS011;47256;18.904;-99.054;2022-10-26T07:39:28;21.73;;;12.65;;
61385;SDS011;47256;18.904;-99.054;2022-10-26T07:41:57;23.23;;;13.98;;
61385;SDS011;47256;18.904;-99.054;2022-10-26T07:44:25;29.05;;;15.02;;
61385;SDS011;47256;18.904;-99.054;2022-10-26T07:46:51;28.80;;;15.38;;
61385;SDS011;47256;18.904;-99.054;2022-10-26T07:49:19;21.58;;;12.93;;
61385;SDS011;47256;18.904;-99.054;2022-10-26T07:51:46;20.27;;;12.80;;
61385;SDS011;47256;18.904;-99.054;2022-10-26T07:54:15;17.90;;;12.30;;
61385;SDS011;47256;18.904;-99.054;2022-10-26T07:56:43;21.30;;;11.82;;
61385;SDS011;47256;18.904;-99.054;2022-10-26T07:59:10;24.40;;;11.70;;
61385;SDS011;47256;18.904;-99.054;2022-10-26T08:01:38;18.45;;;12.00;;
61385;SDS011;47256;18.904;-99.054;2022-10-26T08:04:04;18.33;;;11.35;;
61385;SDS011;47256;18.904;-99.054;2022-10-26T08:06:31;21.83;;;12.27;;
61385;SDS011;47256;18.904;-99.054;2022-10-26T08:09:04;17.73;;;11.57;;
61385;SDS011;47256;18.904;-99.054;2022-10-26T08:11:31;20.42;;;12.95;;
61385;SDS011;47256;18.904;-99.054;2022-10-26T08:13:59;17.10;;;11.43;;
61385;SDS011;47256;18.904;-99.054;2022-10-26T08:16:26;19.77;;;13.30;;
61385;SDS011;47256;18.904;-99.054;2022-10-26T08:18:54;16.88;;;11.18;;
61385;SDS011;47256;18.904;-99.054;2022-10-26T08:21:23;18.50;;;11.32;;
61385;SDS011;47256;18.904;-99.054;2022-10-26T08:23:50;18.73;;;11.55;;
61385;SDS011;47256;18.904;-99.054;2022-10-26T08:26:18;16.02;;;10.32;;
61385;SDS011;47256;18.904;-99.054;2022-10-26T08:28:47;15.77;;;10.15;;
61385;SDS011;47256;18.904;-99.054;2022-10-26T08:31:15;12.70;;;9.43;;
61385;SDS011;47256;18.904;-99.054;2022-10-26T08:33:42;11.65;;;7.78;;
61385;SDS011;47256;18.904;-99.054;2022-10-26T08:36:09;10.98;;;7.22;;
61385;SDS011;47256;18.904;-99.054;2022-10-26T08:38:37;7.68;;;5.22;;
61385;SDS011;47256;18.904;-99.054;2022-10-26T08:41:05;12.02;;;5.57;;
61385;SDS011;47256;18.904;-99.054;2022-10-26T08:43:47;8.20;;;5.32;;
61385;SDS011;47256;18.904;-99.054;2022-10-26T08:46:36;9.02;;;4.93;;
61385;SDS011;47256;18.904;-99.054;2022-10-26T08:52:22;7.25;;;4.40;;
61385;SDS011;47256;18.904;-99.054;2022-10-26T08:55:01;5.78;;;3.85;;
61385;SDS011;47256;18.904;-99.054;2022-10-26T08:57:39;5.50;;;4.15;;
61385;SDS011;47256;18.904;-99.054;2022-10-26T09:00:11;6.25;;;4.03;;
61385;SDS011;47256;18.904;-99.054;2022-10-26T09:02:51;6.80;;;3.83;;
61385;SDS011;47256;18.904;-99.054;2022-10-26T09:05:26;4.22;;;3.40;;
61385;SDS011;47256;18.904;-99.054;2022-10-26T09:08:11;5.80;;;3.88;;
61385;SDS011;47256;18.904;-99.054;2022-10-26T09:13:41;5.28;;;3.85;;
61385;SDS011;47256;18.904;-99.054;2022-10-26T09:19:33;6.65;;;4.57;;
61385;SDS011;47256;18.904;-99.054;2022-10-26T09:25:26;6.45;;;4.10;;
61385;SDS011;47256;18.904;-99.054;2022-10-26T09:28:03;13.70;;;4.95;;
61385;SDS011;47256;18.904;-99.054;2022-10-26T09:30:37;5.05;;;3.65;;
61385;SDS011;47256;18.904;-99.054;2022-10-26T09:33:10;9.07;;;5.07;;
61385;SDS011;47256;18.904;-99.054;2022-10-26T09:35:48;7.88;;;4.32;;
61385;SDS011;47256;18.904;-99.054;2022-10-26T09:46:57;7.82;;;4.95;;
61385;SDS011;47256;18.904;-99.054;2022-10-26T09:49:50;7.75;;;4.68;;
61385;SDS011;47256;18.904;-99.054;2022-10-26T09:52:24;5.47;;;4.32;;
61385;SDS011;47256;18.904;-99.054;2022-10-26T09:54:51;9.57;;;4.55;;
61385;SDS011;47256;18.904;-99.054;2022-10-26T09:57:19;7.47;;;5.07;;
61385;SDS011;47256;18.904;-99.054;2022-10-26T09:59:47;8.80;;;4.95;;
61385;SDS011;47256;18.904;-99.054;2022-10-26T10:05:43;10.93;;;4.55;;
61385;SDS011;47256;18.904;-99.054;2022-10-26T10:08:15;9.48;;;4.82;;
61385;SDS011;47256;18.904;-99.054;2022-10-26T10:10:54;8.05;;;5.13;;
61385;SDS011;47256;18.904;-99.054;2022-10-26T10:13:26;6.15;;;4.40;;
61385;SDS011;47256;18.904;-99.054;2022-10-26T10:18:59;7.55;;;4.93;;
61385;SDS011;47256;18.904;-99.054;2022-10-26T10:24:20;8.35;;;4.85;;
61385;SDS011;47256;18.904;-99.054;2022-10-26T10:26:56;6.38;;;4.68;;
61385;SDS011;47256;18.904;-99.054;2022-10-26T10:30:26;7.47;;;5.30;;
61385;SDS011;47256;18.904;-99.054;2022-10-26T10:35:51;7.88;;;4.55;;
61385;SDS011;47256;18.904;-99.054;2022-10-26T10:38:19;8.63;;;5.43;;
61385;SDS011;47256;18.904;-99.054;2022-10-26T10:40:57;9.77;;;5.68;;
61385;SDS011;47256;18.904;-99.054;2022-10-26T10:43:30;18.92;;;6.47;;
61385;SDS011;47256;18.904;-99.054;2022-10-26T10:45:57;10.90;;;6.10;;
61385;SDS011;47256;18.904;-99.054;2022-10-26T10:48:26;7.75;;;5.47;;
61385;SDS011;47256;18.904;-99.054;2022-10-26T10:53:36;10.02;;;5.72;;
61385;SDS011;47256;18.904;-99.054;2022-10-26T11:07:21;9.93;;;7.10;;
61385;SDS011;47256;18.904;-99.054;2022-10-26T11:09:55;9.55;;;6.47;;
61385;SDS011;47256;18.904;-99.054;2022-10-26T11:12:27;11.05;;;6.43;;
61385;SDS011;47256;18.904;-99.054;2022-10-26T11:15:02;16.77;;;7.45;;
61385;SDS011;47256;18.904;-99.054;2022-10-26T11:17:44;11.68;;;6.43;;
61385;SDS011;47256;18.904;-99.054;2022-10-26T11:20:21;8.65;;;6.32;;
61385;SDS011;47256;18.904;-99.054;2022-10-26T11:23:04;10.02;;;6.97;;
61385;SDS011;47256;18.904;-99.054;2022-10-26T11:25:51;9.90;;;6.85;;
61385;SDS011;47256;18.904;-99.054;2022-10-26T11:31:20;8.93;;;5.88;;
61385;SDS011;47256;18.904;-99.054;2022-10-26T11:34:00;11.70;;;6.85;;
61385;SDS011;47256;18.904;-99.054;2022-10-26T11:36:44;10.15;;;6.40;;
61385;SDS011;47256;18.904;-99.054;2022-10-26T11:39:32;11.10;;;6.72;;
61385;SDS011;47256;18.904;-99.054;2022-10-26T11:45:29;14.23;;;6.57;;
61385;SDS011;47256;18.904;-99.054;2022-10-26T11:50:40;9.93;;;6.15;;
61385;SDS011;47256;18.904;-99.054;2022-10-26T11:53:18;11.88;;;6.90;;
61385;SDS011;47256;18.904;-99.054;2022-10-26T11:55:51;9.18;;;5.93;;
61385;SDS011;47256;18.904;-99.054;2022-10-26T11:58:26;13.48;;;6.88;;
61385;SDS011;47256;18.904;-99.054;2022-10-26T12:01:02;11.02;;;5.47;;
61385;SDS011;47256;18.904;-99.054;2022-10-26T12:03:36;9.90;;;6.82;;
61385;SDS011;47256;18.904;-99.054;2022-10-26T12:06:11;12.40;;;6.20;;
61385;SDS011;47256;18.904;-99.054;2022-10-26T12:08:46;12.23;;;6.32;;
61385;SDS011;47256;18.904;-99.054;2022-10-26T12:14:14;9.93;;;5.88;;
61385;SDS011;47256;18.904;-99.054;2022-10-26T12:22:22;19.40;;;9.95;;
61385;SDS011;47256;18.904;-99.054;2022-10-26T12:25:06;12.70;;;7.93;;
61385;SDS011;47256;18.904;-99.054;2022-10-26T12:35:36;12.35;;;6.72;;
61385;SDS011;47256;18.904;-99.054;2022-10-26T12:43:40;15.05;;;6.05;;
61385;SDS011;47256;18.904;-99.054;2022-10-26T12:48:38;15.88;;;6.57;;
61385;SDS011;47256;18.904;-99.054;2022-10-26T12:53:50;8.80;;;6.07;;
61385;SDS011;47256;18.904;-99.054;2022-10-26T12:56:55;10.13;;;6.05;;
61385;SDS011;47256;18.904;-99.054;2022-10-26T13:02:28;18.15;;;8.25;;
61385;SDS011;47256;18.904;-99.054;2022-10-26T13:05:32;15.35;;;7.07;;
61385;SDS011;47256;18.904;-99.054;2022-10-26T13:08:10;10.10;;;6.43;;
61385;SDS011;47256;18.904;-99.054;2022-10-26T13:10:39;12.20;;;6.22;;
61385;SDS011;47256;18.904;-99.054;2022-10-26T13:13:28;15.88;;;8.10;;
61385;SDS011;47256;18.904;-99.054;2022-10-26T13:15:58;19.15;;;8.93;;
61385;SDS011;47256;18.904;-99.054;2022-10-26T13:18:27;21.63;;;9.25;;
61385;SDS011;47256;18.904;-99.054;2022-10-26T13:21:06;13.32;;;6.88;;
61385;SDS011;47256;18.904;-99.054;2022-10-26T13:23:40;19.70;;;8.00;;
61385;SDS011;47256;18.904;-99.054;2022-10-26T13:26:15;15.52;;;7.93;;
61385;SDS011;47256;18.904;-99.054;2022-10-26T13:39:04;16.50;;;8.73;;
61385;SDS011;47256;18.904;-99.054;2022-10-26T13:41:44;18.35;;;8.80;;
61385;SDS011;47256;18.904;-99.054;2022-10-26T13:49:54;22.42;;;11.10;;
61385;SDS011;47256;18.904;-99.054;2022-10-26T13:52:40;19.05;;;11.63;;
61385;SDS011;47256;18.904;-99.054;2022-10-26T13:55:15;20.13;;;11.68;;
61385;SDS011;47256;18.904;-99.054;2022-10-26T14:01:03;19.52;;;8.32;;
61385;SDS011;47256;18.904;-99.054;2022-10-26T14:03:30;14.98;;;8.32;;
61385;SDS011;47256;18.904;-99.054;2022-10-26T14:06:00;19.83;;;8.02;;
61385;SDS011;47256;18.904;-99.054;2022-10-26T14:08:39;12.05;;;7.60;;
61385;SDS011;47256;18.904;-99.054;2022-10-26T14:11:20;13.82;;;7.95;;
61385;SDS011;47256;18.904;-99.054;2022-10-26T14:13:52;14.07;;;7.20;;
61385;SDS011;47256;18.904;-99.054;2022-10-26T14:16:19;17.85;;;8.00;;
61385;SDS011;47256;18.904;-99.054;2022-10-26T14:18:52;14.32;;;8.30;;
61385;SDS011;47256;18.904;-99.054;2022-10-26T14:21:30;16.63;;;8.10;;
61385;SDS011;47256;18.904;-99.054;2022-10-26T14:23:58;18.15;;;7.95;;
61385;SDS011;47256;18.904;-99.054;2022-10-26T14:26:39;23.27;;;9.05;;
61385;SDS011;47256;18.904;-99.054;2022-10-26T14:29:16;14.27;;;8.30;;
61385;SDS011;47256;18.904;-99.054;2022-10-26T14:31:47;13.75;;;7.78;;
61385;SDS011;47256;18.904;-99.054;2022-10-26T14:34:17;17.00;;;8.98;;
61385;SDS011;47256;18.904;-99.054;2022-10-26T14:39:30;18.35;;;9.10;;
61385;SDS011;47256;18.904;-99.054;2022-10-26T14:42:29;17.85;;;8.50;;
61385;SDS011;47256;18.904;-99.054;2022-10-26T14:45:01;21.17;;;8.98;;
61385;SDS011;47256;18.904;-99.054;2022-10-26T14:47:32;15.30;;;8.50;;
61385;SDS011;47256;18.904;-99.054;2022-10-26T14:50:01;18.88;;;9.10;;
61385;SDS011;47256;18.904;-99.054;2022-10-26T14:52:29;20.73;;;9.00;;
61385;SDS011;47256;18.904;-99.054;2022-10-26T14:55:14;17.25;;;9.05;;
61385;SDS011;47256;18.904;-99.054;2022-10-26T14:57:51;12.23;;;7.50;;
61385;SDS011;47256;18.904;-99.054;2022-10-26T15:03:56;13.20;;;8.57;;
61385;SDS011;47256;18.904;-99.054;2022-10-26T15:09:02;14.82;;;8.95;;
61385;SDS011;47256;18.904;-99.054;2022-10-26T15:11:32;16.30;;;8.38;;
61385;SDS011;47256;18.904;-99.054;2022-10-26T15:14:03;12.70;;;6.93;;
61385;SDS011;47256;18.904;-99.054;2022-10-26T15:16:38;16.10;;;9.13;;
61385;SDS011;47256;18.904;-99.054;2022-10-26T15:19:09;14.48;;;8.85;;
61385;SDS011;47256;18.904;-99.054;2022-10-26T15:21:59;12.30;;;7.72;;
61385;SDS011;47256;18.904;-99.054;2022-10-26T15:25:00;13.73;;;7.90;;
61385;SDS011;47256;18.904;-99.054;2022-10-26T15:27:29;18.90;;;8.52;;
61385;SDS011;47256;18.904;-99.054;2022-10-26T15:32:59;10.75;;;7.35;;
61385;SDS011;47256;18.904;-99.054;2022-10-26T15:35:47;12.20;;;8.10;;
61385;SDS011;47256;18.904;-99.054;2022-10-26T15:38:14;18.70;;;8.10;;
61385;SDS011;47256;18.904;-99.054;2022-10-26T15:40:42;11.68;;;8.18;;
61385;SDS011;47256;18.904;-99.054;2022-10-26T15:43:11;13.25;;;7.28;;
61385;SDS011;47256;18.904;-99.054;2022-10-26T15:45:45;8.93;;;6.50;;
61385;SDS011;47256;18.904;-99.054;2022-10-26T15:48:23;19.52;;;8.77;;
61385;SDS011;47256;18.904;-99.054;2022-10-26T15:50:55;13.60;;;8.43;;
61385;SDS011;47256;18.904;-99.054;2022-10-26T15:53:27;9.88;;;7.00;;
61385;SDS011;47256;18.904;-99.054;2022-10-26T15:55:56;12.20;;;8.15;;
61385;SDS011;47256;18.904;-99.054;2022-10-26T15:58:26;11.43;;;7.72;;
61385;SDS011;47256;18.904;-99.054;2022-10-26T16:00:54;13.05;;;8.18;;
61385;SDS011;47256;18.904;-99.054;2022-10-26T16:03:23;10.52;;;7.25;;
61385;SDS011;47256;18.904;-99.054;2022-10-26T16:05:57;10.32;;;7.68;;
61385;SDS011;47256;18.904;-99.054;2022-10-26T16:08:28;11.80;;;8.10;;
61385;SDS011;47256;18.904;-99.054;2022-10-26T16:10:56;11.32;;;8.10;;
61385;SDS011;47256;18.904;-99.054;2022-10-26T16:13:25;16.45;;;9.15;;
61385;SDS011;47256;18.904;-99.054;2022-10-26T16:15:52;17.90;;;9.27;;
61385;SDS011;47256;18.904;-99.054;2022-10-26T16:18:22;17.55;;;11.50;;
61385;SDS011;47256;18.904;-99.054;2022-10-26T16:20:49;18.27;;;10.40;;
61385;SDS011;47256;18.904;-99.054;2022-10-26T16:23:18;12.65;;;7.95;;
61385;SDS011;47256;18.904;-99.054;2022-10-26T16:25:45;14.90;;;7.85;;
61385;SDS011;47256;18.904;-99.054;2022-10-26T16:28:13;11.35;;;7.93;;
61385;SDS011;47256;18.904;-99.054;2022-10-26T16:30:42;17.15;;;8.93;;
61385;SDS011;47256;18.904;-99.054;2022-10-26T16:33:09;11.77;;;7.63;;
61385;SDS011;47256;18.904;-99.054;2022-10-26T16:35:36;10.50;;;6.95;;
61385;SDS011;47256;18.904;-99.054;2022-10-26T16:38:03;13.68;;;8.70;;
61385;SDS011;47256;18.904;-99.054;2022-10-26T16:40:33;19.40;;;9.88;;
61385;SDS011;47256;18.904;-99.054;2022-10-26T16:43:00;12.90;;;8.45;;
61385;SDS011;47256;18.904;-99.054;2022-10-26T16:45:27;13.93;;;8.63;;
61385;SDS011;47256;18.904;-99.054;2022-10-26T16:47:54;16.02;;;8.05;;
61385;SDS011;47256;18.904;-99.054;2022-10-26T16:50:22;18.60;;;7.88;;
61385;SDS011;47256;18.904;-99.054;2022-10-26T16:52:50;14.82;;;8.93;;
61385;SDS011;47256;18.904;-99.054;2022-10-26T16:55:19;13.63;;;7.03;;
61385;SDS011;47256;18.904;-99.054;2022-10-26T16:57:49;12.27;;;7.40;;
61385;SDS011;47256;18.904;-99.054;2022-10-26T17:00:21;11.35;;;7.38;;
61385;SDS011;47256;18.904;-99.054;2022-10-26T17:02:48;13.35;;;8.85;;
61385;SDS011;47256;18.904;-99.054;2022-10-26T17:05:16;11.43;;;6.95;;
61385;SDS011;47256;18.904;-99.054;2022-10-26T17:07:45;11.80;;;7.20;;
61385;SDS011;47256;18.904;-99.054;2022-10-26T17:10:12;11.23;;;7.30;;
61385;SDS011;47256;18.904;-99.054;2022-10-26T17:12:39;14.05;;;8.27;;
61385;SDS011;47256;18.904;-99.054;2022-10-26T17:15:10;10.07;;;6.97;;
61385;SDS011;47256;18.904;-99.054;2022-10-26T17:17:41;12.40;;;7.45;;
61385;SDS011;47256;18.904;-99.054;2022-10-26T17:20:08;13.63;;;6.97;;
61385;SDS011;47256;18.904;-99.054;2022-10-26T17:22:40;9.93;;;6.68;;
61385;SDS011;47256;18.904;-99.054;2022-10-26T17:25:09;12.77;;;7.55;;
61385;SDS011;47256;18.904;-99.054;2022-10-26T17:27:43;12.27;;;6.80;;
61385;SDS011;47256;18.904;-99.054;2022-10-26T17:30:12;11.63;;;7.70;;